Time;durP1;ratioP1;P1;durP2;ratioP2;P2;SDS_P1;SDS_P2;PMS_P1;PMS_P2;Temp;Humidity;BMP_temperature;BMP_pressure;BME280_temperature;BME280_humidity;BME280_pressure;Samples;Min_cycle;Max_cycle;Signal;HPM_P1;HPM_P2
2023/07/04 00:00:35;;;;;;;2.08;1.60;;;;;;;;;;5050104;28;20048;-67
2023/07/04 00:03:01;;;;;;;2.45;1.60;;;;;;;;;;5054050;28;20075;-67
2023/07/04 00:05:26;;;;;;;2.35;1.50;;;;;;;;;;5047570;28;20041;-67
2023/07/04 00:07:52;;;;;;;2.72;1.80;;;;;;;;;;5050846;28;20028;-67
2023/07/04 00:10:19;;;;;;;2.08;1.80;;;;;;;;;;5035282;28;21610;-67
2023/07/04 00:12:45;;;;;;;1.90;1.48;;;;;;;;;;5040265;28;20059;-68
2023/07/04 00:15:11;;;;;;;2.28;1.52;;;;;;;;;;5039056;28;20041;-68
2023/07/04 00:17:36;;;;;;;1.70;1.60;;;;;;;;;;5031998;28;20052;-67
2023/07/04 00:20:04;;;;;;;1.73;1.50;;;;;;;;;;5044481;28;20489;-67
2023/07/04 00:22:29;;;;;;;1.90;1.63;;;;;;;;;;5053399;28;20039;-68
2023/07/04 00:24:56;;;;;;;2.95;1.67;;;;;;;;;;5037114;28;20052;-67
2023/07/04 00:27:23;;;;;;;5.25;1.92;;;;;;;;;;5053419;28;20029;-67
2023/07/04 00:29:50;;;;;;;1.70;1.52;;;;;;;;;;5025643;28;20095;-67
2023/07/04 00:32:16;;;;;;;2.22;1.80;;;;;;;;;;5027265;28;20040;-67
2023/07/04 00:34:45;;;;;;;1.70;1.60;;;;;;;;;;5042448;28;20037;-67
2023/07/04 00:37:11;;;;;;;4.00;1.85;;;;;;;;;;5051733;28;20075;-67
2023/07/04 00:39:37;;;;;;;3.70;2.05;;;;;;;;;;5052095;28;20033;-68
2023/07/04 00:42:07;;;;;;;4.82;1.67;;;;;;;;;;5038731;28;20040;-67
2023/07/04 00:44:37;;;;;;;3.70;1.58;;;;;;;;;;5039674;28;20055;-68
2023/07/04 00:47:21;;;;;;;3.42;2.22;;;;;;;;;;5057407;28;20037;-67
2023/07/04 00:49:56;;;;;;;1.88;1.58;;;;;;;;;;5049405;28;20032;-67
2023/07/04 00:52:34;;;;;;;2.80;2.08;;;;;;;;;;5041535;28;20579;-67
2023/07/04 00:55:04;;;;;;;5.80;1.80;;;;;;;;;;5034726;28;20490;-67
2023/07/04 00:57:31;;;;;;;6.30;1.98;;;;;;;;;;5044531;28;20036;-68
2023/07/04 00:59:58;;;;;;;2.15;1.95;;;;;;;;;;5031545;28;20115;-67
2023/07/04 01:02:29;;;;;;;1.83;1.63;;;;;;;;;;5048101;28;20056;-68
2023/07/04 01:04:56;;;;;;;2.58;1.80;;;;;;;;;;5045599;28;20044;-68
2023/07/04 01:07:35;;;;;;;3.85;1.90;;;;;;;;;;5052929;28;20036;-68
2023/07/04 01:10:18;;;;;;;2.40;1.85;;;;;;;;;;5049143;28;20375;-66
2023/07/04 01:12:45;;;;;;;2.65;2.20;;;;;;;;;;5049426;28;20028;-67
2023/07/04 01:15:11;;;;;;;5.63;2.10;;;;;;;;;;5058766;28;20070;-67
2023/07/04 01:17:37;;;;;;;3.05;2.10;;;;;;;;;;5054297;28;20033;-66
2023/07/04 01:20:08;;;;;;;1.80;1.70;;;;;;;;;;5023803;28;20020;-67
2023/07/04 01:22:38;;;;;;;3.53;2.15;;;;;;;;;;5028706;28;20036;-67
2023/07/04 01:25:51;;;;;;;2.45;1.88;;;;;;;;;;5051757;28;20033;-68
2023/07/04 01:28:18;;;;;;;2.42;2.00;;;;;;;;;;4950720;28;20154;-68
2023/07/04 01:30:44;;;;;;;2.30;2.10;;;;;;;;;;4939782;28;20046;-67
2023/07/04 01:33:13;;;;;;;4.47;2.47;;;;;;;;;;4993355;28;20037;-68
2023/07/04 01:35:40;;;;;;;3.30;2.30;;;;;;;;;;5055785;28;20033;-67
2023/07/04 01:38:06;;;;;;;3.53;2.30;;;;;;;;;;5040274;28;20020;-68
2023/07/04 01:40:34;;;;;;;2.58;2.15;;;;;;;;;;5036620;28;20077;-67
2023/07/04 01:43:00;;;;;;;2.58;2.17;;;;;;;;;;5055812;28;20029;-67
2023/07/04 01:45:26;;;;;;;4.47;2.53;;;;;;;;;;5017716;28;20047;-67
2023/07/04 01:47:52;;;;;;;5.97;2.30;;;;;;;;;;5037457;28;20037;-67
2023/07/04 01:50:18;;;;;;;8.75;2.25;;;;;;;;;;5045807;28;20040;-66
2023/07/04 01:52:45;;;;;;;4.85;2.58;;;;;;;;;;5028883;28;20025;-66
2023/07/04 01:55:12;;;;;;;7.13;2.85;;;;;;;;;;5049312;28;20025;-67
2023/07/04 01:57:38;;;;;;;4.90;2.83;;;;;;;;;;5038400;28;20056;-66
2023/07/04 02:00:09;;;;;;;4.15;2.58;;;;;;;;;;5034757;28;20021;-68
2023/07/04 02:02:38;;;;;;;4.53;2.50;;;;;;;;;;5052420;28;20029;-66
2023/07/04 02:05:05;;;;;;;2.97;2.47;;;;;;;;;;5054850;28;20033;-68
2023/07/04 02:07:31;;;;;;;3.42;2.15;;;;;;;;;;5045994;28;20437;-67
2023/07/04 02:09:56;;;;;;;4.60;2.40;;;;;;;;;;5050159;28;20029;-66
2023/07/04 02:12:22;;;;;;;5.75;2.78;;;;;;;;;;5027700;28;20029;-67
2023/07/04 02:14:48;;;;;;;5.85;2.17;;;;;;;;;;5042487;28;20134;-68
2023/07/04 02:17:14;;;;;;;5.38;2.80;;;;;;;;;;5026169;28;20041;-68
2023/07/04 02:19:40;;;;;;;3.95;2.42;;;;;;;;;;5060196;28;20028;-67
2023/07/04 02:22:05;;;;;;;6.88;2.58;;;;;;;;;;5042306;28;20757;-66
2023/07/04 02:24:31;;;;;;;3.80;2.65;;;;;;;;;;5034681;28;20068;-67
2023/07/04 02:26:56;;;;;;;3.03;2.30;;;;;;;;;;5013080;28;20045;-67
2023/07/04 02:29:22;;;;;;;6.47;2.50;;;;;;;;;;5055752;28;20029;-68
2023/07/04 02:31:47;;;;;;;4.45;2.60;;;;;;;;;;5049261;28;20105;-67
2023/07/04 02:34:13;;;;;;;4.47;2.25;;;;;;;;;;5018240;28;20049;-67
2023/07/04 02:36:38;;;;;;;7.43;2.53;;;;;;;;;;5018777;28;20049;-67
2023/07/04 02:39:04;;;;;;;3.88;2.38;;;;;;;;;;5052192;28;20386;-67
2023/07/04 02:41:29;;;;;;;2.70;2.20;;;;;;;;;;5050855;28;20032;-68
2023/07/04 02:43:57;;;;;;;3.00;2.47;;;;;;;;;;5017176;28;20112;-68
2023/07/04 02:46:23;;;;;;;3.55;2.17;;;;;;;;;;5037752;28;20041;-68
2023/07/04 02:48:48;;;;;;;3.72;2.53;;;;;;;;;;5029982;28;20176;-67
2023/07/04 02:51:14;;;;;;;4.13;2.53;;;;;;;;;;5046126;28;20496;-68
2023/07/04 02:53:39;;;;;;;3.25;2.67;;;;;;;;;;5045185;28;20029;-68
2023/07/04 02:56:04;;;;;;;2.60;2.20;;;;;;;;;;5040396;28;20509;-67
2023/07/04 02:58:30;;;;;;;3.45;2.22;;;;;;;;;;5052180;28;20027;-68
2023/07/04 03:00:57;;;;;;;5.80;2.70;;;;;;;;;;5035064;28;20056;-67
2023/07/04 03:03:22;;;;;;;7.68;2.65;;;;;;;;;;5037030;28;20029;-67
2023/07/04 03:05:48;;;;;;;5.22;2.42;;;;;;;;;;5035485;28;20043;-68
2023/07/04 03:08:13;;;;;;;4.90;2.45;;;;;;;;;;5039176;28;20025;-68
2023/07/04 03:10:39;;;;;;;3.70;2.40;;;;;;;;;;5035764;28;20041;-68
2023/07/04 03:13:04;;;;;;;2.65;2.22;;;;;;;;;;5044813;28;20063;-67
2023/07/04 03:15:30;;;;;;;6.03;2.22;;;;;;;;;;5040410;28;20052;-68
2023/07/04 03:17:55;;;;;;;3.33;2.40;;;;;;;;;;5038370;28;20070;-67
2023/07/04 03:20:21;;;;;;;5.10;2.40;;;;;;;;;;5049027;28;20037;-68
2023/07/04 03:22:47;;;;;;;4.20;2.67;;;;;;;;;;5040077;28;20047;-68
2023/07/04 03:25:12;;;;;;;3.47;2.53;;;;;;;;;;5057185;28;20037;-68
2023/07/04 03:27:39;;;;;;;4.97;2.80;;;;;;;;;;5057073;28;20501;-68
2023/07/04 03:30:08;;;;;;;6.55;3.08;;;;;;;;;;5035873;28;20036;-68
2023/07/04 03:32:33;;;;;;;5.40;2.70;;;;;;;;;;5056918;28;20067;-68
2023/07/04 03:35:03;;;;;;;3.40;2.50;;;;;;;;;;5033881;28;20024;-67
2023/07/04 03:37:29;;;;;;;9.65;3.13;;;;;;;;;;5053262;28;20040;-67
2023/07/04 03:39:56;;;;;;;4.07;2.65;;;;;;;;;;5056160;28;20111;-67
2023/07/04 03:42:22;;;;;;;3.10;2.42;;;;;;;;;;5054192;28;20489;-66
2023/07/04 03:44:47;;;;;;;3.20;2.53;;;;;;;;;;5033955;28;20060;-67
2023/07/04 03:47:12;;;;;;;5.82;2.80;;;;;;;;;;5034894;28;20050;-67
2023/07/04 03:49:38;;;;;;;8.38;2.85;;;;;;;;;;5056731;28;20037;-67
2023/07/04 03:52:04;;;;;;;3.35;2.50;;;;;;;;;;5037993;28;20041;-67
2023/07/04 03:54:29;;;;;;;3.00;2.50;;;;;;;;;;5022190;28;20032;-67
2023/07/04 03:56:54;;;;;;;3.53;2.63;;;;;;;;;;5035930;28;20043;-67
2023/07/04 03:59:20;;;;;;;3.30;2.70;;;;;;;;;;5027819;28;20032;-67
2023/07/04 04:01:45;;;;;;;7.57;2.70;;;;;;;;;;5036796;28;20068;-67
2023/07/04 04:04:11;;;;;;;2.65;2.40;;;;;;;;;;5039228;28;20483;-66
2023/07/04 04:06:37;;;;;;;4.07;2.38;;;;;;;;;;5053506;28;20401;-67
2023/07/04 04:09:03;;;;;;;2.45;2.25;;;;;;;;;;5045262;28;20033;-66
2023/07/04 04:11:28;;;;;;;4.32;2.15;;;;;;;;;;5055273;28;20033;-67
2023/07/04 04:13:53;;;;;;;3.78;2.35;;;;;;;;;;5056078;28;20038;-66
2023/07/04 04:16:21;;;;;;;9.30;2.88;;;;;;;;;;5038593;28;20708;-67
2023/07/04 04:18:46;;;;;;;3.47;2.50;;;;;;;;;;5055267;28;20029;-66
2023/07/04 04:21:12;;;;;;;6.32;2.72;;;;;;;;;;5032600;28;20045;-67
2023/07/04 04:23:37;;;;;;;3.53;2.80;;;;;;;;;;5046823;28;20033;-67
2023/07/04 04:26:03;;;;;;;2.70;2.28;;;;;;;;;;5051597;28;20044;-66
2023/07/04 04:28:29;;;;;;;6.40;2.40;;;;;;;;;;5041477;28;20555;-67
2023/07/04 04:30:54;;;;;;;3.78;2.40;;;;;;;;;;5048554;28;20044;-66
2023/07/04 04:33:20;;;;;;;3.88;2.63;;;;;;;;;;5016539;28;20047;-67
2023/07/04 04:35:46;;;;;;;7.15;2.13;;;;;;;;;;5045984;28;20047;-66
2023/07/04 04:38:11;;;;;;;3.72;2.20;;;;;;;;;;5022329;28;20505;-67
2023/07/04 04:40:37;;;;;;;3.20;2.40;;;;;;;;;;5053762;28;20052;-66
2023/07/04 04:43:03;;;;;;;2.55;1.98;;;;;;;;;;5049085;28;20036;-68
2023/07/04 04:45:29;;;;;;;2.70;2.30;;;;;;;;;;5052044;28;20112;-67
2023/07/04 04:47:55;;;;;;;5.07;3.55;;;;;;;;;;5021239;28;20040;-66
2023/07/04 04:50:24;;;;;;;5.10;2.85;;;;;;;;;;5037890;28;20041;-67
2023/07/04 04:52:51;;;;;;;2.58;2.20;;;;;;;;;;5063022;28;20021;-67
2023/07/04 04:55:17;;;;;;;2.30;2.10;;;;;;;;;;5041497;28;20124;-68
2023/07/04 04:57:43;;;;;;;3.00;2.25;;;;;;;;;;5026889;28;20028;-68
2023/07/04 05:00:12;;;;;;;4.13;2.50;;;;;;;;;;5002792;28;20108;-66
2023/07/04 05:02:38;;;;;;;3.75;2.30;;;;;;;;;;5050721;28;20475;-65
2023/07/04 05:05:04;;;;;;;4.50;2.30;;;;;;;;;;5034877;28;20060;-66
2023/07/04 05:07:29;;;;;;;2.63;2.20;;;;;;;;;;5028661;28;20029;-66
2023/07/04 05:09:58;;;;;;;3.47;2.30;;;;;;;;;;5054435;28;20024;-66
2023/07/04 05:12:23;;;;;;;4.47;2.47;;;;;;;;;;5033260;28;20036;-66
2023/07/04 05:14:48;;;;;;;5.00;3.40;;;;;;;;;;5032609;28;20486;-67
2023/07/04 05:17:15;;;;;;;2.25;2.05;;;;;;;;;;5054383;28;20056;-67
2023/07/04 05:19:40;;;;;;;2.58;2.22;;;;;;;;;;5051788;28;20040;-67
2023/07/04 05:22:06;;;;;;;5.15;2.20;;;;;;;;;;5053472;28;20029;-67
2023/07/04 05:24:31;;;;;;;6.07;2.88;;;;;;;;;;5057600;28;20493;-66
2023/07/04 05:26:57;;;;;;;4.68;2.40;;;;;;;;;;5035683;28;20033;-67
2023/07/04 05:29:22;;;;;;;5.28;3.03;;;;;;;;;;5001159;28;20059;-67
2023/07/04 05:31:48;;;;;;;3.03;2.45;;;;;;;;;;5032009;28;20544;-67
2023/07/04 05:34:13;;;;;;;2.85;2.47;;;;;;;;;;5050237;28;20390;-67
2023/07/04 05:36:39;;;;;;;2.55;2.10;;;;;;;;;;5050401;28;20033;-67
2023/07/04 05:39:06;;;;;;;4.60;2.30;;;;;;;;;;5032324;28;20433;-67
2023/07/04 05:41:33;;;;;;;3.92;2.30;;;;;;;;;;5031043;28;20128;-67
2023/07/04 05:44:04;;;;;;;2.95;2.10;;;;;;;;;;5056016;28;20162;-67
2023/07/04 05:46:30;;;;;;;3.13;2.78;;;;;;;;;;5038840;28;20112;-68
2023/07/04 05:48:57;;;;;;;3.50;2.65;;;;;;;;;;5053522;28;20060;-66
2023/07/04 05:51:23;;;;;;;4.68;2.40;;;;;;;;;;5045348;28;20041;-68
2023/07/04 05:53:50;;;;;;;3.05;2.05;;;;;;;;;;5031606;28;20055;-68
2023/07/04 05:56:26;;;;;;;5.47;2.20;;;;;;;;;;5051284;28;20557;-67
2023/07/04 05:59:00;;;;;;;4.50;2.30;;;;;;;;;;5054560;28;20017;-68
2023/07/04 06:01:43;;;;;;;7.43;2.17;;;;;;;;;;5050310;28;20049;-68
2023/07/04 06:04:10;;;;;;;4.95;2.00;;;;;;;;;;5053235;28;20383;-67
2023/07/04 06:06:40;;;;;;;4.57;2.17;;;;;;;;;;5053661;28;20037;-67
2023/07/04 06:09:09;;;;;;;4.68;2.03;;;;;;;;;;5052647;28;20032;-69
2023/07/04 06:11:38;;;;;;;4.22;1.98;;;;;;;;;;5015658;28;20091;-68
2023/07/04 06:14:05;;;;;;;4.38;2.10;;;;;;;;;;5050922;28;20029;-67
2023/07/04 06:16:31;;;;;;;2.80;2.10;;;;;;;;;;5030454;28;20047;-68
2023/07/04 06:18:56;;;;;;;2.08;1.92;;;;;;;;;;5051082;28;20025;-68
2023/07/04 06:21:24;;;;;;;1.90;1.80;;;;;;;;;;5051354;28;20041;-68
2023/07/04 06:23:51;;;;;;;2.30;2.05;;;;;;;;;;5043987;28;20472;-68
2023/07/04 06:26:17;;;;;;;3.10;1.90;;;;;;;;;;5039441;28;20052;-68
2023/07/04 06:28:43;;;;;;;2.50;2.03;;;;;;;;;;5036530;28;20701;-69
2023/07/04 06:31:15;;;;;;;4.10;1.92;;;;;;;;;;5056512;28;20055;-68
2023/07/04 06:33:41;;;;;;;3.28;1.83;;;;;;;;;;5039197;28;20387;-69
2023/07/04 06:36:11;;;;;;;4.28;2.15;;;;;;;;;;5035678;28;20036;-71
2023/07/04 06:38:37;;;;;;;3.55;1.98;;;;;;;;;;5031886;28;20032;-70
2023/07/04 06:41:10;;;;;;;3.90;1.80;;;;;;;;;;5056502;28;20044;-70
2023/07/04 06:43:36;;;;;;;5.10;1.77;;;;;;;;;;5056370;28;20043;-70
2023/07/04 06:46:02;;;;;;;4.82;1.80;;;;;;;;;;5029361;28;20427;-70
2023/07/04 06:48:28;;;;;;;2.10;1.55;;;;;;;;;;5055837;28;20056;-70
2023/07/04 06:51:08;;;;;;;4.25;2.00;;;;;;;;;;5044067;28;20087;-70
2023/07/04 06:53:34;;;;;;;6.07;2.10;;;;;;;;;;5055052;28;20016;-70
2023/07/04 06:56:11;;;;;;;3.60;1.73;;;;;;;;;;5051643;28;20045;-70
2023/07/04 06:58:40;;;;;;;5.55;1.75;;;;;;;;;;5058868;28;20108;-70
2023/07/04 07:01:06;;;;;;;5.07;1.70;;;;;;;;;;5054783;28;20131;-69
2023/07/04 07:03:32;;;;;;;3.55;1.90;;;;;;;;;;5044136;28;20064;-70
2023/07/04 07:06:02;;;;;;;4.45;1.70;;;;;;;;;;5038523;28;20179;-70
2023/07/04 07:08:27;;;;;;;3.53;1.73;;;;;;;;;;5056815;28;20039;-69
2023/07/04 07:10:54;;;;;;;4.38;1.67;;;;;;;;;;5047067;28;20045;-70
2023/07/04 07:13:20;;;;;;;2.83;1.70;;;;;;;;;;5054603;28;20029;-70
2023/07/04 07:15:45;;;;;;;3.05;1.85;;;;;;;;;;5053280;28;20044;-70
2023/07/04 07:18:11;;;;;;;3.05;1.80;;;;;;;;;;5053487;28;20033;-70
2023/07/04 07:20:36;;;;;;;2.35;2.03;;;;;;;;;;5055418;28;20544;-69
2023/07/04 07:23:02;;;;;;;4.68;1.90;;;;;;;;;;5040692;28;20017;-71
2023/07/04 07:25:27;;;;;;;3.38;1.83;;;;;;;;;;5048003;28;20045;-70
2023/07/04 07:27:52;;;;;;;2.17;1.55;;;;;;;;;;5028601;28;20056;-70
2023/07/04 07:30:18;;;;;;;4.63;1.85;;;;;;;;;;5053770;28;20044;-70
2023/07/04 07:32:43;;;;;;;4.30;1.60;;;;;;;;;;5055687;28;20025;-70
2023/07/04 07:35:09;;;;;;;3.47;1.70;;;;;;;;;;5035240;28;20025;-69
2023/07/04 07:37:35;;;;;;;1.88;1.63;;;;;;;;;;5039975;28;20041;-69
2023/07/04 07:40:01;;;;;;;3.40;1.63;;;;;;;;;;5031271;28;20029;-70
2023/07/04 07:42:26;;;;;;;2.53;1.80;;;;;;;;;;5057435;28;20082;-69
2023/07/04 07:44:51;;;;;;;2.97;1.58;;;;;;;;;;5021592;28;20120;-68
2023/07/04 07:47:17;;;;;;;5.15;1.80;;;;;;;;;;5046677;28;20032;-70
2023/07/04 07:49:42;;;;;;;4.30;1.58;;;;;;;;;;5062792;28;20017;-70
2023/07/04 07:52:08;;;;;;;4.03;1.88;;;;;;;;;;5005380;28;20041;-69
2023/07/04 07:54:35;;;;;;;2.17;1.42;;;;;;;;;;5055376;28;20025;-70
2023/07/04 07:57:00;;;;;;;2.13;1.50;;;;;;;;;;5047003;28;20040;-69
2023/07/04 07:59:26;;;;;;;5.47;1.80;;;;;;;;;;5049700;28;20040;-69
2023/07/04 08:01:52;;;;;;;8.43;1.50;;;;;;;;;;5048889;28;20044;-69
2023/07/04 08:04:18;;;;;;;1.58;1.27;;;;;;;;;;5032605;28;20026;-69
2023/07/04 08:06:45;;;;;;;2.67;1.20;;;;;;;;;;5035874;28;20041;-69
2023/07/04 08:09:14;;;;;;;2.17;1.45;;;;;;;;;;5055164;28;20474;-69
2023/07/04 08:11:41;;;;;;;3.65;1.40;;;;;;;;;;5050493;28;20037;-69
2023/07/04 08:14:07;;;;;;;1.55;1.30;;;;;;;;;;5019782;28;20029;-69
2023/07/04 08:16:43;;;;;;;2.63;1.70;;;;;;;;;;5053992;28;20053;-70
2023/07/04 08:19:08;;;;;;;1.58;1.20;;;;;;;;;;5056574;28;20024;-70
2023/07/04 08:21:34;;;;;;;2.13;1.40;;;;;;;;;;5053067;28;20120;-69
2023/07/04 08:23:59;;;;;;;2.63;1.42;;;;;;;;;;5028605;28;20059;-69
2023/07/04 08:26:26;;;;;;;2.85;1.33;;;;;;;;;;5041964;28;20061;-71
2023/07/04 08:28:56;;;;;;;5.53;1.48;;;;;;;;;;5029267;28;20035;-70
2023/07/04 08:31:23;;;;;;;3.72;1.83;;;;;;;;;;5032985;28;20407;-69
2023/07/04 08:33:49;;;;;;;1.60;1.35;;;;;;;;;;5054841;28;20397;-70
2023/07/04 08:36:16;;;;;;;3.88;1.52;;;;;;;;;;5032686;28;20041;-70
2023/07/04 08:38:42;;;;;;;1.67;1.23;;;;;;;;;;5055816;28;20374;-70
2023/07/04 08:41:27;;;;;;;2.35;1.58;;;;;;;;;;5038176;28;20044;-69
2023/07/04 08:44:00;;;;;;;3.45;1.60;;;;;;;;;;5054629;28;20021;-69
2023/07/04 08:46:31;;;;;;;5.57;1.40;;;;;;;;;;5040306;28;20029;-72
2023/07/04 08:48:57;;;;;;;;;;;;;;;;;;5057182;28;20082;-69
2023/07/04 08:51:42;;;;;;;4.95;1.23;;;;;;;;;;5032179;28;19920;-70
2023/07/04 08:54:11;;;;;;;1.60;1.17;;;;;;;;;;5049078;28;20538;-73
2023/07/04 08:56:38;;;;;;;1.98;1.42;;;;;;;;;;5021961;28;20573;-72
2023/07/04 08:59:37;;;;;;;4.80;1.30;;;;;;;;;;5054371;28;20543;-71
2023/07/04 09:02:23;;;;;;;5.03;1.52;;;;;;;;;;5033378;28;20056;-71
2023/07/04 09:05:11;;;;;;;1.75;1.40;;;;;;;;;;5041189;28;20055;-70
2023/07/04 09:07:57;;;;;;;1.50;1.38;;;;;;;;;;5044674;28;20443;-71
2023/07/04 09:10:41;;;;;;;2.45;1.40;;;;;;;;;;5042920;28;20758;-73
2023/07/04 09:13:11;;;;;;;1.40;1.30;;;;;;;;;;5053396;28;20060;-71
2023/07/04 09:15:42;;;;;;;5.05;1.65;;;;;;;;;;5051705;28;21216;-71
2023/07/04 09:18:38;;;;;;;8.43;1.50;;;;;;;;;;5055944;28;20067;-69
2023/07/04 09:21:13;;;;;;;3.08;1.50;;;;;;;;;;5035773;28;20438;-70
2023/07/04 09:23:39;;;;;;;4.97;1.50;;;;;;;;;;5054619;28;20157;-70
2023/07/04 09:26:07;;;;;;;1.67;1.30;;;;;;;;;;5052058;28;20510;-71
2023/07/04 09:28:37;;;;;;;1.23;1.13;;;;;;;;;;5036861;28;20071;-70
2023/07/04 09:31:05;;;;;;;5.10;1.30;;;;;;;;;;5017830;28;20044;-70
2023/07/04 09:33:35;;;;;;;5.78;1.70;;;;;;;;;;5028466;28;20052;-71
2023/07/04 09:36:02;;;;;;;3.20;1.15;;;;;;;;;;5028205;28;20045;-69
2023/07/04 09:38:57;;;;;;;9.90;1.48;;;;;;;;;;5037884;28;20017;-71
2023/07/04 09:41:29;;;;;;;4.93;1.48;;;;;;;;;;5039194;28;20075;-71
2023/07/04 09:43:56;;;;;;;1.48;1.20;;;;;;;;;;5053932;28;20429;-70
2023/07/04 09:46:26;;;;;;;5.63;1.38;;;;;;;;;;5053237;28;20037;-71
2023/07/04 09:48:54;;;;;;;3.35;1.40;;;;;;;;;;5052182;28;20052;-70
2023/07/04 09:51:29;;;;;;;1.98;1.40;;;;;;;;;;5037111;28;20098;-70
2023/07/04 09:54:16;;;;;;;3.15;1.92;;;;;;;;;;5038903;28;20025;-71
2023/07/04 09:56:43;;;;;;;3.90;1.40;;;;;;;;;;5049497;28;20447;-71
2023/07/04 09:59:13;;;;;;;5.63;1.40;;;;;;;;;;5061973;28;20036;-71
2023/07/04 10:01:50;;;;;;;3.95;1.10;;;;;;;;;;5059615;28;20044;-72
2023/07/04 10:04:32;;;;;;;3.47;0.93;;;;;;;;;;5057758;28;20032;-71
2023/07/04 10:06:58;;;;;;;3.97;1.25;;;;;;;;;;5054917;28;20041;-71
2023/07/04 10:09:26;;;;;;;2.30;1.30;;;;;;;;;;5066324;28;20031;-71
2023/07/04 10:12:08;;;;;;;1.35;1.15;;;;;;;;;;5055858;28;20083;-72
2023/07/04 10:14:36;;;;;;;2.70;1.30;;;;;;;;;;5059642;28;20029;-71
2023/07/04 10:17:14;;;;;;;5.32;1.08;;;;;;;;;;5058721;28;20052;-71
2023/07/04 10:19:42;;;;;;;5.05;1.60;;;;;;;;;;5035466;28;20059;-71
2023/07/04 10:22:08;;;;;;;3.65;1.52;;;;;;;;;;5051839;28;20037;-72
2023/07/04 10:24:34;;;;;;;2.40;1.10;;;;;;;;;;5043147;28;20051;-71
2023/07/04 10:27:05;;;;;;;6.65;1.33;;;;;;;;;;5053628;28;20033;-71
2023/07/04 10:29:52;;;;;;;7.38;1.50;;;;;;;;;;5029609;28;20088;-71
2023/07/04 10:32:18;;;;;;;1.25;1.15;;;;;;;;;;5060332;28;20072;-71
2023/07/04 10:34:47;;;;;;;6.28;1.60;;;;;;;;;;5044479;28;20052;-72
2023/07/04 10:37:24;;;;;;;4.75;1.52;;;;;;;;;;5045975;28;20559;-72
2023/07/04 10:39:57;;;;;;;5.05;1.60;;;;;;;;;;5051174;28;20017;-71
2023/07/04 10:42:29;;;;;;;2.80;1.50;;;;;;;;;;5046559;28;20044;-70
2023/07/04 10:44:56;;;;;;;1.58;1.30;;;;;;;;;;5047064;28;20033;-73
2023/07/04 10:47:35;;;;;;;3.72;1.25;;;;;;;;;;5031669;28;20040;-74
2023/07/04 10:50:24;;;;;;;3.70;1.02;;;;;;;;;;5034140;28;20022;-74
2023/07/04 10:52:49;;;;;;;2.53;1.30;;;;;;;;;;5038085;28;20032;-73
2023/07/04 10:55:25;;;;;;;2.00;1.20;;;;;;;;;;5058497;28;20037;-72
2023/07/04 10:58:19;;;;;;;3.63;1.20;;;;;;;;;;5021730;28;20035;-71
2023/07/04 11:00:59;;;;;;;1.40;1.30;;;;;;;;;;5024493;28;20036;-71
2023/07/04 11:03:30;;;;;;;2.23;1.73;;;;;;;;;;5055850;28;20082;-71
2023/07/04 11:05:57;;;;;;;1.05;1.05;;;;;;;;;;5058468;28;20111;-72
2023/07/04 11:08:27;;;;;;;1.27;1.17;;;;;;;;;;5053675;28;20721;-72
2023/07/04 11:11:24;;;;;;;3.60;1.20;;;;;;;;;;5036798;28;20034;-72
2023/07/04 11:13:52;;;;;;;1.67;1.30;;;;;;;;;;5053069;28;20106;-71
2023/07/04 11:16:22;;;;;;;3.53;1.58;;;;;;;;;;5056750;28;20053;-70
2023/07/04 11:19:19;;;;;;;3.72;1.20;;;;;;;;;;5031942;28;20379;-69
2023/07/04 11:22:05;;;;;;;1.13;1.13;;;;;;;;;;5048109;28;20025;-72
2023/07/04 11:24:43;;;;;;;2.42;1.20;;;;;;;;;;5054955;28;20055;-71
2023/07/04 11:27:14;;;;;;;3.45;1.23;;;;;;;;;;5037890;28;20041;-70
2023/07/04 11:29:50;;;;;;;2.90;1.35;;;;;;;;;;5045899;28;20029;-70
2023/07/04 11:32:37;;;;;;;1.85;1.23;;;;;;;;;;5053776;28;20048;-71
2023/07/04 11:35:06;;;;;;;1.58;1.48;;;;;;;;;;5046521;28;20017;-71
2023/07/04 11:37:41;;;;;;;4.15;1.40;;;;;;;;;;5039725;28;20039;-72
2023/07/04 11:40:23;;;;;;;1.40;1.30;;;;;;;;;;5048718;28;20060;-71
2023/07/04 11:43:02;;;;;;;3.40;1.40;;;;;;;;;;5034417;28;20036;-71
2023/07/04 11:45:30;;;;;;;1.52;1.20;;;;;;;;;;5041431;28;20049;-71
2023/07/04 11:48:01;;;;;;;3.65;1.10;;;;;;;;;;5040814;28;20040;-70
2023/07/04 11:50:45;;;;;;;4.05;1.45;;;;;;;;;;5048480;28;20103;-70
2023/07/04 11:53:22;;;;;;;3.97;1.27;;;;;;;;;;5046562;28;20055;-71
2023/07/04 11:56:14;;;;;;;4.10;1.20;;;;;;;;;;5027939;28;20063;-72
2023/07/04 11:58:40;;;;;;;3.17;1.13;;;;;;;;;;5044618;28;20041;-70
2023/07/04 12:01:07;;;;;;;4.75;1.17;;;;;;;;;;5054994;28;20482;-71
2023/07/04 12:03:57;;;;;;;4.53;1.52;;;;;;;;;;5054313;28;20021;-72
2023/07/04 12:06:44;;;;;;;2.55;1.35;;;;;;;;;;5033556;28;20044;-71
2023/07/04 12:09:14;;;;;;;3.58;1.25;;;;;;;;;;5036582;28;20577;-71
2023/07/04 12:11:45;;;;;;;2.05;1.30;;;;;;;;;;5041516;28;20037;-69
2023/07/04 12:14:13;;;;;;;1.17;0.90;;;;;;;;;;5019034;28;20032;-70
2023/07/04 12:16:40;;;;;;;1.45;1.35;;;;;;;;;;5024303;28;20064;-69
2023/07/04 12:19:06;;;;;;;7.00;1.48;;;;;;;;;;5049798;28;20037;-71
2023/07/04 12:21:33;;;;;;;5.22;1.20;;;;;;;;;;5049598;28;20433;-71
2023/07/04 12:24:03;;;;;;;1.15;1.02;;;;;;;;;;5040160;28;20072;-72
2023/07/04 12:26:32;;;;;;;2.53;1.08;;;;;;;;;;5056041;28;20594;-72
2023/07/04 12:29:01;;;;;;;2.13;1.30;;;;;;;;;;5054536;28;20044;-71
2023/07/04 12:31:26;;;;;;;3.80;1.02;;;;;;;;;;5047065;28;20506;-70
2023/07/04 12:33:52;;;;;;;1.80;0.98;;;;;;;;;;5051590;28;20033;-72
2023/07/04 12:36:19;;;;;;;1.40;0.90;;;;;;;;;;5037154;28;20076;-71
2023/07/04 12:38:53;;;;;;;1.48;1.10;;;;;;;;;;5052472;28;20044;-71
2023/07/04 12:41:24;;;;;;;2.38;1.33;;;;;;;;;;5036650;28;20047;-72
2023/07/04 12:44:15;;;;;;;1.08;0.95;;;;;;;;;;5049949;28;20059;-71
2023/07/04 12:46:42;;;;;;;0.98;0.98;;;;;;;;;;5050369;28;20041;-71
2023/07/04 12:49:10;;;;;;;0.98;0.88;;;;;;;;;;5054570;28;20041;-71
2023/07/04 12:51:37;;;;;;;0.88;0.88;;;;;;;;;;5052269;28;20075;-72
2023/07/04 12:54:05;;;;;;;3.30;1.17;;;;;;;;;;5054234;28;20437;-71
2023/07/04 12:56:32;;;;;;;3.13;1.00;;;;;;;;;;5032501;28;20029;-72
2023/07/04 12:58:58;;;;;;;0.90;0.90;;;;;;;;;;5053387;28;20029;-71
2023/07/04 13:01:27;;;;;;;1.05;0.95;;;;;;;;;;5050053;28;20556;-71
2023/07/04 13:04:05;;;;;;;1.65;0.95;;;;;;;;;;5056293;28;20040;-72
2023/07/04 13:06:31;;;;;;;1.48;1.08;;;;;;;;;;5052556;28;20494;-71
2023/07/04 13:08:57;;;;;;;1.33;1.05;;;;;;;;;;5037870;28;20032;-72
2023/07/04 13:11:24;;;;;;;1.77;0.93;;;;;;;;;;5038612;28;20040;-74
2023/07/04 13:13:51;;;;;;;6.45;1.25;;;;;;;;;;5034583;28;20495;-73
2023/07/04 13:16:29;;;;;;;2.75;1.10;;;;;;;;;;5054751;28;20087;-72
2023/07/04 13:18:57;;;;;;;0.90;0.85;;;;;;;;;;5056296;28;20029;-71
2023/07/04 13:21:35;;;;;;;2.47;1.30;;;;;;;;;;5052071;28;20033;-72
2023/07/04 13:24:31;;;;;;;4.88;1.17;;;;;;;;;;5052443;28;20041;-72
2023/07/04 13:27:09;;;;;;;2.10;1.02;;;;;;;;;;5033135;28;20063;-73
2023/07/04 13:29:34;;;;;;;2.50;1.00;;;;;;;;;;5057572;28;20413;-72
2023/07/04 13:32:00;;;;;;;3.63;1.10;;;;;;;;;;5031929;28;20113;-72
2023/07/04 13:34:29;;;;;;;2.00;1.10;;;;;;;;;;5039688;28;20029;-72
2023/07/04 13:37:05;;;;;;;1.55;1.00;;;;;;;;;;5058030;28;20036;-73
2023/07/04 13:39:31;;;;;;;1.23;1.10;;;;;;;;;;5027195;28;20452;-73
2023/07/04 13:41:58;;;;;;;1.10;1.00;;;;;;;;;;5019095;28;20033;-72
2023/07/04 13:44:24;;;;;;;2.28;1.10;;;;;;;;;;5041903;28;20411;-73
2023/07/04 13:46:50;;;;;;;6.32;1.40;;;;;;;;;;5036211;28;20116;-73
2023/07/04 13:49:16;;;;;;;1.90;1.08;;;;;;;;;;5017707;28;20576;-72
2023/07/04 13:51:41;;;;;;;1.30;1.10;;;;;;;;;;5051588;28;20087;-72
2023/07/04 13:54:07;;;;;;;1.30;1.20;;;;;;;;;;5039848;28;20035;-73
2023/07/04 13:56:33;;;;;;;3.63;1.30;;;;;;;;;;5016875;28;20037;-75
2023/07/04 13:58:59;;;;;;;2.83;1.05;;;;;;;;;;5033463;28;20033;-70
2023/07/04 14:01:25;;;;;;;1.60;1.00;;;;;;;;;;5044495;28;20036;-73
2023/07/04 14:03:50;;;;;;;3.08;1.17;;;;;;;;;;5038319;28;20026;-72
2023/07/04 14:06:16;;;;;;;1.20;1.10;;;;;;;;;;5054365;28;20045;-71
2023/07/04 14:08:45;;;;;;;1.40;1.27;;;;;;;;;;5034004;28;20028;-70
2023/07/04 14:11:14;;;;;;;6.60;1.30;;;;;;;;;;5048392;28;20572;-71
2023/07/04 14:13:40;;;;;;;2.33;1.20;;;;;;;;;;5060532;28;20039;-72
2023/07/04 14:16:08;;;;;;;1.52;1.00;;;;;;;;;;5042668;28;20041;-73
2023/07/04 14:18:34;;;;;;;3.15;1.25;;;;;;;;;;5050361;28;20096;-73
2023/07/04 14:21:05;;;;;;;1.48;1.10;;;;;;;;;;5053316;28;20037;-73
2023/07/04 14:23:31;;;;;;;1.30;1.17;;;;;;;;;;5054186;28;20482;-73
2023/07/04 14:25:56;;;;;;;3.55;1.20;;;;;;;;;;5027851;28;20044;-75
2023/07/04 14:28:22;;;;;;;1.60;1.00;;;;;;;;;;5056639;28;20483;-75
2023/07/04 14:30:47;;;;;;;2.05;1.30;;;;;;;;;;5061917;28;20079;-75
2023/07/04 14:33:13;;;;;;;5.75;1.38;;;;;;;;;;5047756;28;20553;-73
2023/07/04 14:35:39;;;;;;;5.30;1.60;;;;;;;;;;5044658;28;20462;-71
2023/07/04 14:38:05;;;;;;;3.10;1.77;;;;;;;;;;5037636;28;20028;-74
2023/07/04 14:40:30;;;;;;;6.28;1.98;;;;;;;;;;5030890;28;20140;-74
2023/07/04 14:42:57;;;;;;;4.00;2.28;;;;;;;;;;5053037;28;20036;-76
2023/07/04 14:45:22;;;;;;;4.35;2.08;;;;;;;;;;5052608;28;21532;-74
2023/07/04 14:47:48;;;;;;;3.35;2.05;;;;;;;;;;5039378;28;20021;-73
2023/07/04 14:50:17;;;;;;;5.97;1.95;;;;;;;;;;5058011;28;20197;-71
2023/07/04 14:52:42;;;;;;;6.00;2.33;;;;;;;;;;5056688;28;20029;-72
2023/07/04 14:55:09;;;;;;;4.32;2.13;;;;;;;;;;5024358;28;20120;-71